sensor_id;sensor_type;location;lat;lon;timestamp;pressure;altitude;pressure_sealevel;temperature;humidity
35307;BME280;21420;52.196;21.416;2023-01-29T00:02:14;101116.70;;;-0.56;73.13
35307;BME280;21420;52.196;21.416;2023-01-29T00:04:42;101114.02;;;-0.56;73.27
35307;BME280;21420;52.196;21.416;2023-01-29T00:07:09;101109.42;;;-0.58;73.22
35307;BME280;21420;52.196;21.416;2023-01-29T00:09:36;101110.66;;;-0.61;73.23
35307;BME280;21420;52.196;21.416;2023-01-29T00:12:03;101107.30;;;-0.65;73.15
35307;BME280;21420;52.196;21.416;2023-01-29T00:14:30;101099.14;;;-0.68;73.15
35307;BME280;21420;52.196;21.416;2023-01-29T00:16:57;101099.10;;;-0.71;73.08
35307;BME280;21420;52.196;21.416;2023-01-29T00:19:24;101094.00;;;-0.76;72.95
35307;BME280;21420;52.196;21.416;2023-01-29T00:21:51;101087.60;;;-0.82;72.85
35307;BME280;21420;52.196;21.416;2023-01-29T00:24:18;101080.15;;;-0.84;72.89
35307;BME280;21420;52.196;21.416;2023-01-29T00:26:46;101080.83;;;-0.85;72.97
35307;BME280;21420;52.196;21.416;2023-01-29T00:29:15;101083.92;;;-0.84;73.06
35307;BME280;21420;52.196;21.416;2023-01-29T00:31:44;101079.05;;;-0.85;73.02
35307;BME280;21420;52.196;21.416;2023-01-29T00:34:11;101072.36;;;-0.90;72.87
35307;BME280;21420;52.196;21.416;2023-01-29T00:36:39;101069.02;;;-0.96;72.95
35307;BME280;21420;52.196;21.416;2023-01-29T00:39:06;101069.81;;;-1.00;72.95
35307;BME280;21420;52.196;21.416;2023-01-29T00:41:37;101071.45;;;-1.01;72.94
35307;BME280;21420;52.196;21.416;2023-01-29T00:44:23;101072.48;;;-1.01;72.89
35307;BME280;21420;52.196;21.416;2023-01-29T00:47:09;101077.31;;;-0.99;72.92
35307;BME280;21420;52.196;21.416;2023-01-29T00:49:55;101075.91;;;-0.96;72.94
35307;BME280;21420;52.196;21.416;2023-01-29T00:52:23;101073.48;;;-0.93;72.99
35307;BME280;21420;52.196;21.416;2023-01-29T00:54:55;101068.80;;;-0.90;73.02
35307;BME280;21420;52.196;21.416;2023-01-29T00:57:24;101066.08;;;-0.89;73.10
35307;BME280;21420;52.196;21.416;2023-01-29T00:59:52;101061.60;;;-0.90;73.04
35307;BME280;21420;52.196;21.416;2023-01-29T01:02:19;101062.42;;;-0.92;72.92
35307;BME280;21420;52.196;21.416;2023-01-29T01:05:07;101059.05;;;-0.91;72.98
35307;BME280;21420;52.196;21.416;2023-01-29T01:07:39;101052.89;;;-0.90;72.97
35307;BME280;21420;52.196;21.416;2023-01-29T01:10:19;101044.74;;;-0.88;72.90
35307;BME280;21420;52.196;21.416;2023-01-29T01:13:02;101047.97;;;-0.86;72.93
35307;BME280;21420;52.196;21.416;2023-01-29T01:15:34;101044.63;;;-0.86;72.80
35307;BME280;21420;52.196;21.416;2023-01-29T01:18:02;101036.98;;;-0.90;72.72
35307;BME280;21420;52.196;21.416;2023-01-29T01:20:32;101040.13;;;-0.94;72.72
35307;BME280;21420;52.196;21.416;2023-01-29T01:23:01;101035.19;;;-0.96;72.73
35307;BME280;21420;52.196;21.416;2023-01-29T01:25:28;101025.83;;;-1.00;72.77
35307;BME280;21420;52.196;21.416;2023-01-29T01:27:56;101029.60;;;-1.05;72.61
35307;BME280;21420;52.196;21.416;2023-01-29T01:30:24;101027.75;;;-1.09;72.70
35307;BME280;21420;52.196;21.416;2023-01-29T01:32:51;101031.08;;;-1.10;72.71
35307;BME280;21420;52.196;21.416;2023-01-29T01:35:19;101031.48;;;-1.12;72.56
35307;BME280;21420;52.196;21.416;2023-01-29T01:37:46;101025.78;;;-1.12;72.68
35307;BME280;21420;52.196;21.416;2023-01-29T01:40:22;101021.11;;;-1.12;72.73
35307;BME280;21420;52.196;21.416;2023-01-29T01:42:52;101017.49;;;-1.13;72.71
35307;BME280;21420;52.196;21.416;2023-01-29T01:45:24;101014.16;;;-1.15;72.71
35307;BME280;21420;52.196;21.416;2023-01-29T01:48:00;101021.11;;;-1.17;72.60
35307;BME280;21420;52.196;21.416;2023-01-29T01:50:36;101024.30;;;-1.17;72.64
35307;BME280;21420;52.196;21.416;2023-01-29T01:53:12;101020.17;;;-1.16;72.68
35307;BME280;21420;52.196;21.416;2023-01-29T01:55:44;101024.94;;;-1.14;72.74
35307;BME280;21420;52.196;21.416;2023-01-29T01:58:25;101024.30;;;-1.14;72.74
35307;BME280;21420;52.196;21.416;2023-01-29T02:00:54;101021.66;;;-1.14;72.76
35307;BME280;21420;52.196;21.416;2023-01-29T02:03:21;101018.53;;;-1.17;72.68
35307;BME280;21420;52.196;21.416;2023-01-29T02:06:10;101020.16;;;-1.19;72.68
35307;BME280;21420;52.196;21.416;2023-01-29T02:09:06;101020.98;;;-1.22;72.57
35307;BME280;21420;52.196;21.416;2023-01-29T02:11:54;101026.10;;;-1.24;72.60
35307;BME280;21420;52.196;21.416;2023-01-29T02:14:21;101021.08;;;-1.26;72.58
35307;BME280;21420;52.196;21.416;2023-01-29T02:16:48;101014.68;;;-1.31;72.57
35307;BME280;21420;52.196;21.416;2023-01-29T02:24:58;101026.34;;;-1.38;72.53
35307;BME280;21420;52.196;21.416;2023-01-29T02:36:15;101013.05;;;-1.45;72.48
35307;BME280;21420;52.196;21.416;2023-01-29T02:47:13;101004.23;;;-1.50;72.48
35307;BME280;21420;52.196;21.416;2023-01-29T02:50:25;100998.04;;;-1.54;72.51
35307;BME280;21420;52.196;21.416;2023-01-29T02:55:41;100996.20;;;-1.55;72.48
35307;BME280;21420;52.196;21.416;2023-01-29T02:58:18;101003.55;;;-1.56;72.50
35307;BME280;21420;52.196;21.416;2023-01-29T03:00:48;101009.79;;;-1.58;72.48
35307;BME280;21420;52.196;21.416;2023-01-29T03:03:31;101009.88;;;-1.59;72.60
35307;BME280;21420;52.196;21.416;2023-01-29T03:06:12;101006.84;;;-1.58;72.57
35307;BME280;21420;52.196;21.416;2023-01-29T03:11:50;100999.93;;;-1.62;72.49
35307;BME280;21420;52.196;21.416;2023-01-29T03:14:40;100995.08;;;-1.63;72.48
35307;BME280;21420;52.196;21.416;2023-01-29T03:20:22;100992.23;;;-1.60;72.51
35307;BME280;21420;52.196;21.416;2023-01-29T03:23:09;100992.67;;;-1.58;72.71
35307;BME280;21420;52.196;21.416;2023-01-29T03:25:39;100989.45;;;-1.58;72.68
35307;BME280;21420;52.196;21.416;2023-01-29T03:28:29;100987.32;;;-1.59;72.60
35307;BME280;21420;52.196;21.416;2023-01-29T03:31:16;100982.67;;;-1.62;72.48
35307;BME280;21420;52.196;21.416;2023-01-29T03:34:15;100982.42;;;-1.64;72.48
35307;BME280;21420;52.196;21.416;2023-01-29T03:36:56;100974.73;;;-1.65;72.38
35307;BME280;21420;52.196;21.416;2023-01-29T03:39:26;100973.59;;;-1.66;72.57
35307;BME280;21420;52.196;21.416;2023-01-29T03:44:29;100976.64;;;-1.64;72.62
35307;BME280;21420;52.196;21.416;2023-01-29T03:47:11;100973.09;;;-1.64;72.65
35307;BME280;21420;52.196;21.416;2023-01-29T03:54:57;100979.40;;;-1.65;72.44
35307;BME280;21420;52.196;21.416;2023-01-29T04:00:16;100973.66;;;-1.68;72.65
35307;BME280;21420;52.196;21.416;2023-01-29T04:05:29;100973.65;;;-1.65;72.51
35307;BME280;21420;52.196;21.416;2023-01-29T04:08:13;100970.02;;;-1.67;72.46
35307;BME280;21420;52.196;21.416;2023-01-29T04:10:44;100973.00;;;-1.69;72.55
35307;BME280;21420;52.196;21.416;2023-01-29T04:13:14;100970.36;;;-1.70;72.51
35307;BME280;21420;52.196;21.416;2023-01-29T04:15:47;100972.09;;;-1.69;72.53
35307;BME280;21420;52.196;21.416;2023-01-29T04:18:17;100972.79;;;-1.69;72.60
35307;BME280;21420;52.196;21.416;2023-01-29T04:21:14;100968.80;;;-1.70;72.50
35307;BME280;21420;52.196;21.416;2023-01-29T04:23:42;100966.70;;;-1.70;72.55
35307;BME280;21420;52.196;21.416;2023-01-29T04:26:32;100960.34;;;-1.69;72.65
35307;BME280;21420;52.196;21.416;2023-01-29T04:34:58;100952.70;;;-1.65;72.76
35307;BME280;21420;52.196;21.416;2023-01-29T04:37:43;100952.98;;;-1.69;72.62
35307;BME280;21420;52.196;21.416;2023-01-29T04:45:27;100942.91;;;-1.67;72.66
35307;BME280;21420;52.196;21.416;2023-01-29T04:48:10;100941.15;;;-1.66;72.54
35307;BME280;21420;52.196;21.416;2023-01-29T04:50:45;100936.84;;;-1.67;72.56
35307;BME280;21420;52.196;21.416;2023-01-29T04:53:27;100930.68;;;-1.66;72.64
35307;BME280;21420;52.196;21.416;2023-01-29T04:56:25;100926.71;;;-1.66;72.60
35307;BME280;21420;52.196;21.416;2023-01-29T04:59:00;100920.14;;;-1.67;72.62
35307;BME280;21420;52.196;21.416;2023-01-29T05:01:30;100915.98;;;-1.68;72.63
35307;BME280;21420;52.196;21.416;2023-01-29T05:04:03;100921.11;;;-1.70;72.67
35307;BME280;21420;52.196;21.416;2023-01-29T05:06:31;100920.02;;;-1.70;72.67
35307;BME280;21420;52.196;21.416;2023-01-29T05:08:59;100922.88;;;-1.69;72.63
35307;BME280;21420;52.196;21.416;2023-01-29T05:11:29;100929.00;;;-1.70;72.49
35307;BME280;21420;52.196;21.416;2023-01-29T05:14:01;100929.33;;;-1.69;72.68
35307;BME280;21420;52.196;21.416;2023-01-29T05:16:35;100934.09;;;-1.70;72.69
35307;BME280;21420;52.196;21.416;2023-01-29T05:19:09;100938.16;;;-1.71;72.66
35307;BME280;21420;52.196;21.416;2023-01-29T05:21:37;100939.14;;;-1.71;72.49
35307;BME280;21420;52.196;21.416;2023-01-29T05:24:18;100936.38;;;-1.69;72.51
35307;BME280;21420;52.196;21.416;2023-01-29T05:26:47;100930.42;;;-1.68;72.57
35307;BME280;21420;52.196;21.416;2023-01-29T05:29:34;100921.86;;;-1.70;72.60
35307;BME280;21420;52.196;21.416;2023-01-29T05:32:01;100920.88;;;-1.68;72.69
35307;BME280;21420;52.196;21.416;2023-01-29T05:34:29;100919.65;;;-1.67;72.55
35307;BME280;21420;52.196;21.416;2023-01-29T05:36:56;100915.92;;;-1.65;72.71
35307;BME280;21420;52.196;21.416;2023-01-29T05:39:22;100913.12;;;-1.65;72.77
35307;BME280;21420;52.196;21.416;2023-01-29T05:41:49;100916.12;;;-1.66;72.62
35307;BME280;21420;52.196;21.416;2023-01-29T05:44:16;100910.11;;;-1.65;72.65
35307;BME280;21420;52.196;21.416;2023-01-29T05:46:43;100909.20;;;-1.65;72.67
35307;BME280;21420;52.196;21.416;2023-01-29T05:49:12;100909.73;;;-1.65;72.56
35307;BME280;21420;52.196;21.416;2023-01-29T05:51:38;100906.02;;;-1.63;72.75
35307;BME280;21420;52.196;21.416;2023-01-29T05:54:05;100903.55;;;-1.62;72.75
35307;BME280;21420;52.196;21.416;2023-01-29T05:56:32;100898.18;;;-1.62;72.65
35307;BME280;21420;52.196;21.416;2023-01-29T05:58:59;100901.29;;;-1.61;72.68
35307;BME280;21420;52.196;21.416;2023-01-29T06:01:26;100905.39;;;-1.59;72.66
35307;BME280;21420;52.196;21.416;2023-01-29T06:03:53;100900.14;;;-1.59;72.69
35307;BME280;21420;52.196;21.416;2023-01-29T06:06:20;100897.10;;;-1.60;72.67
35307;BME280;21420;52.196;21.416;2023-01-29T06:08:47;100896.36;;;-1.60;72.65
35307;BME280;21420;52.196;21.416;2023-01-29T06:11:16;100899.13;;;-1.58;72.65
35307;BME280;21420;52.196;21.416;2023-01-29T06:13:44;100908.23;;;-1.57;72.72
35307;BME280;21420;52.196;21.416;2023-01-29T06:16:12;100911.44;;;-1.57;72.70
35307;BME280;21420;52.196;21.416;2023-01-29T06:18:40;100912.38;;;-1.58;72.73
35307;BME280;21420;52.196;21.416;2023-01-29T06:21:10;100909.83;;;-1.58;72.73
35307;BME280;21420;52.196;21.416;2023-01-29T06:23:38;100913.86;;;-1.57;72.73
35307;BME280;21420;52.196;21.416;2023-01-29T06:26:09;100915.95;;;-1.57;72.72
35307;BME280;21420;52.196;21.416;2023-01-29T06:28:37;100917.84;;;-1.57;72.66
35307;BME280;21420;52.196;21.416;2023-01-29T06:31:05;100919.06;;;-1.54;72.74
35307;BME280;21420;52.196;21.416;2023-01-29T06:33:52;100911.48;;;-1.52;72.71
35307;BME280;21420;52.196;21.416;2023-01-29T06:36:19;100906.27;;;-1.49;72.70
35307;BME280;21420;52.196;21.416;2023-01-29T06:38:46;100902.05;;;-1.44;72.71
35307;BME280;21420;52.196;21.416;2023-01-29T06:41:16;100900.68;;;-1.42;72.76
35307;BME280;21420;52.196;21.416;2023-01-29T06:43:44;100901.73;;;-1.41;72.77
35307;BME280;21420;52.196;21.416;2023-01-29T06:46:12;100907.09;;;-1.38;72.72
35307;BME280;21420;52.196;21.416;2023-01-29T06:48:41;100903.52;;;-1.36;72.82
35307;BME280;21420;52.196;21.416;2023-01-29T06:51:09;100902.80;;;-1.34;72.82
35307;BME280;21420;52.196;21.416;2023-01-29T06:53:37;100907.56;;;-1.32;72.82
35307;BME280;21420;52.196;21.416;2023-01-29T06:56:05;100908.05;;;-1.32;72.71
35307;BME280;21420;52.196;21.416;2023-01-29T06:58:34;100915.61;;;-1.30;72.76
35307;BME280;21420;52.196;21.416;2023-01-29T07:01:10;100917.43;;;-1.27;72.71
35307;BME280;21420;52.196;21.416;2023-01-29T07:03:54;100916.23;;;-1.25;72.71
35307;BME280;21420;52.196;21.416;2023-01-29T07:06:28;100920.14;;;-1.22;72.72
35307;BME280;21420;52.196;21.416;2023-01-29T07:08:55;100922.02;;;-1.19;72.65
35307;BME280;21420;52.196;21.416;2023-01-29T07:11:23;100918.11;;;-1.18;72.71
35307;BME280;21420;52.196;21.416;2023-01-29T07:13:50;100919.20;;;-1.16;72.74
35307;BME280;21420;52.196;21.416;2023-01-29T07:16:16;100912.96;;;-1.13;72.73
35307;BME280;21420;52.196;21.416;2023-01-29T07:18:45;100899.83;;;-1.12;72.74
35307;BME280;21420;52.196;21.416;2023-01-29T07:21:12;100896.30;;;-1.10;72.67
35307;BME280;21420;52.196;21.416;2023-01-29T07:23:39;100888.90;;;-1.10;72.68
35307;BME280;21420;52.196;21.416;2023-01-29T07:26:06;100882.52;;;-1.08;72.85
35307;BME280;21420;52.196;21.416;2023-01-29T07:28:37;100874.48;;;-1.05;72.79
35307;BME280;21420;52.196;21.416;2023-01-29T07:31:05;100877.19;;;-1.01;72.80
35307;BME280;21420;52.196;21.416;2023-01-29T07:33:33;100886.05;;;-0.97;72.81
35307;BME280;21420;52.196;21.416;2023-01-29T07:36:00;100890.08;;;-0.95;72.73
35307;BME280;21420;52.196;21.416;2023-01-29T07:38:27;100888.54;;;-0.94;72.75
35307;BME280;21420;52.196;21.416;2023-01-29T07:40:54;100897.01;;;-0.92;72.73
35307;BME280;21420;52.196;21.416;2023-01-29T07:43:21;100901.48;;;-0.91;72.59
35307;BME280;21420;52.196;21.416;2023-01-29T07:45:50;100902.72;;;-0.91;72.69
35307;BME280;21420;52.196;21.416;2023-01-29T07:48:18;100900.84;;;-0.87;72.90
35307;BME280;21420;52.196;21.416;2023-01-29T07:50:53;100908.06;;;-0.86;72.75
35307;BME280;21420;52.196;21.416;2023-01-29T07:53:21;100909.95;;;-0.86;72.68
35307;BME280;21420;52.196;21.416;2023-01-29T07:55:48;100913.73;;;-0.85;72.70
35307;BME280;21420;52.196;21.416;2023-01-29T07:58:15;100912.48;;;-0.82;72.63
35307;BME280;21420;52.196;21.416;2023-01-29T08:00:42;100905.13;;;-0.80;72.67
35307;BME280;21420;52.196;21.416;2023-01-29T08:03:15;100894.92;;;-0.79;72.71
35307;BME280;21420;52.196;21.416;2023-01-29T08:05:43;100886.80;;;-0.75;72.72
35307;BME280;21420;52.196;21.416;2023-01-29T08:08:11;100885.52;;;-0.72;72.64
35307;BME280;21420;52.196;21.416;2023-01-29T08:10:38;100879.89;;;-0.70;72.42
35307;BME280;21420;52.196;21.416;2023-01-29T08:13:06;100883.60;;;-0.66;72.70
35307;BME280;21420;52.196;21.416;2023-01-29T08:15:34;100891.05;;;-0.60;72.63
35307;BME280;21420;52.196;21.416;2023-01-29T08:18:20;100891.01;;;-0.55;72.65
35307;BME280;21420;52.196;21.416;2023-01-29T08:20:48;100891.73;;;-0.49;72.73
35307;BME280;21420;52.196;21.416;2023-01-29T08:23:15;100889.60;;;-0.47;72.53
35307;BME280;21420;52.196;21.416;2023-01-29T08:25:42;100881.14;;;-0.47;72.66
35307;BME280;21420;52.196;21.416;2023-01-29T08:28:10;100889.52;;;-0.49;72.56
35307;BME280;21420;52.196;21.416;2023-01-29T08:30:38;100891.79;;;-0.49;72.65
35307;BME280;21420;52.196;21.416;2023-01-29T08:33:05;100883.77;;;-0.45;72.60
35307;BME280;21420;52.196;21.416;2023-01-29T08:35:32;100880.98;;;-0.42;72.70
35307;BME280;21420;52.196;21.416;2023-01-29T08:38:01;100882.36;;;-0.40;72.55
35307;BME280;21420;52.196;21.416;2023-01-29T08:40:31;100881.48;;;-0.37;72.55
35307;BME280;21420;52.196;21.416;2023-01-29T08:43:00;100878.79;;;-0.37;72.57
35307;BME280;21420;52.196;21.416;2023-01-29T08:45:30;100881.05;;;-0.36;72.60
35307;BME280;21420;52.196;21.416;2023-01-29T08:47:59;100882.30;;;-0.33;72.57
35307;BME280;21420;52.196;21.416;2023-01-29T08:50:26;100883.23;;;-0.30;72.50
35307;BME280;21420;52.196;21.416;2023-01-29T08:52:57;100880.23;;;-0.28;72.64
35307;BME280;21420;52.196;21.416;2023-01-29T08:55:25;100879.77;;;-0.28;72.58
35307;BME280;21420;52.196;21.416;2023-01-29T08:57:53;100876.38;;;-0.28;72.48
35307;BME280;21420;52.196;21.416;2023-01-29T09:00:20;100867.73;;;-0.31;72.52
35307;BME280;21420;52.196;21.416;2023-01-29T09:02:47;100864.71;;;-0.31;72.45
35307;BME280;21420;52.196;21.416;2023-01-29T09:05:15;100870.15;;;-0.27;72.40
35307;BME280;21420;52.196;21.416;2023-01-29T09:07:42;100872.44;;;-0.24;72.31
35307;BME280;21420;52.196;21.416;2023-01-29T09:10:10;100859.72;;;-0.21;72.58
35307;BME280;21420;52.196;21.416;2023-01-29T09:12:38;100856.75;;;-0.15;72.52
35307;BME280;21420;52.196;21.416;2023-01-29T09:15:05;100853.40;;;-0.06;72.58
35307;BME280;21420;52.196;21.416;2023-01-29T09:17:32;100847.56;;;0.03;72.50
35307;BME280;21420;52.196;21.416;2023-01-29T09:19:59;100836.63;;;0.18;72.68
35307;BME280;21420;52.196;21.416;2023-01-29T09:22:27;100828.30;;;0.28;72.73
35307;BME280;21420;52.196;21.416;2023-01-29T09:24:54;100823.53;;;0.36;72.73
35307;BME280;21420;52.196;21.416;2023-01-29T09:27:21;100818.41;;;0.43;72.69
35307;BME280;21420;52.196;21.416;2023-01-29T09:29:52;100821.08;;;0.54;72.74
35307;BME280;21420;52.196;21.416;2023-01-29T09:32:19;100817.73;;;0.69;72.73
35307;BME280;21420;52.196;21.416;2023-01-29T09:35:06;100812.82;;;0.74;72.44
35307;BME280;21420;52.196;21.416;2023-01-29T09:37:33;100807.98;;;0.76;72.53
35307;BME280;21420;52.196;21.416;2023-01-29T09:40:00;100814.63;;;0.80;72.29
35307;BME280;21420;52.196;21.416;2023-01-29T09:42:37;100814.80;;;0.74;72.21
35307;BME280;21420;52.196;21.416;2023-01-29T09:45:14;100809.71;;;0.69;72.21
35307;BME280;21420;52.196;21.416;2023-01-29T09:47:43;100812.85;;;0.62;72.20
35307;BME280;21420;52.196;21.416;2023-01-29T09:50:20;100800.31;;;0.59;72.18
35307;BME280;21420;52.196;21.416;2023-01-29T09:53:00;100799.46;;;0.60;72.02
35307;BME280;21420;52.196;21.416;2023-01-29T09:55:32;100801.75;;;0.64;72.11
35307;BME280;21420;52.196;21.416;2023-01-29T10:01:05;100786.35;;;0.69;72.23
35307;BME280;21420;52.196;21.416;2023-01-29T10:14:41;100775.89;;;0.74;72.20
35307;BME280;21420;52.196;21.416;2023-01-29T10:17:42;100772.85;;;0.79;72.14
35307;BME280;21420;52.196;21.416;2023-01-29T10:25:39;100765.30;;;0.92;72.20
35307;BME280;21420;52.196;21.416;2023-01-29T10:28:28;100765.95;;;0.93;72.20
35307;BME280;21420;52.196;21.416;2023-01-29T10:31:01;100764.76;;;1.00;72.27
35307;BME280;21420;52.196;21.416;2023-01-29T10:33:39;100764.09;;;1.09;72.36
35307;BME280;21420;52.196;21.416;2023-01-29T10:36:41;100761.29;;;1.10;72.18
35307;BME280;21420;52.196;21.416;2023-01-29T10:39:22;100759.34;;;1.09;72.16
35307;BME280;21420;52.196;21.416;2023-01-29T10:42:14;100756.56;;;1.03;71.97
35307;BME280;21420;52.196;21.416;2023-01-29T10:47:55;100755.73;;;0.88;72.01
35307;BME280;21420;52.196;21.416;2023-01-29T10:51:11;100751.51;;;0.93;72.12
35307;BME280;21420;52.196;21.416;2023-01-29T10:53:52;100747.62;;;0.92;72.15
35307;BME280;21420;52.196;21.416;2023-01-29T11:00:06;100746.45;;;0.84;72.08
35307;BME280;21420;52.196;21.416;2023-01-29T11:02:45;100739.39;;;0.86;72.16
35307;BME280;21420;52.196;21.416;2023-01-29T11:07:47;100731.30;;;0.97;72.21
35307;BME280;21420;52.196;21.416;2023-01-29T11:10:19;100727.97;;;1.00;72.23
35307;BME280;21420;52.196;21.416;2023-01-29T11:12:48;100724.73;;;0.99;72.21
35307;BME280;21420;52.196;21.416;2023-01-29T11:15:23;100723.94;;;0.93;72.17
35307;BME280;21420;52.196;21.416;2023-01-29T11:18:05;100719.86;;;0.84;72.01
35307;BME280;21420;52.196;21.416;2023-01-29T11:20:33;100715.62;;;0.77;71.93
35307;BME280;21420;52.196;21.416;2023-01-29T11:23:00;100715.48;;;0.70;71.75
35307;BME280;21420;52.196;21.416;2023-01-29T11:25:27;100710.54;;;0.65;71.96
35307;BME280;21420;52.196;21.416;2023-01-29T11:27:59;100701.36;;;0.62;72.04
35307;BME280;21420;52.196;21.416;2023-01-29T11:30:34;100696.84;;;0.62;72.02
35307;BME280;21420;52.196;21.416;2023-01-29T11:33:19;100695.35;;;0.66;72.20
35307;BME280;21420;52.196;21.416;2023-01-29T11:35:49;100687.11;;;0.68;72.26
35307;BME280;21420;52.196;21.416;2023-01-29T11:38:22;100691.02;;;0.65;72.15
35307;BME280;21420;52.196;21.416;2023-01-29T11:40:50;100684.65;;;0.62;72.01
35307;BME280;21420;52.196;21.416;2023-01-29T11:43:27;100675.20;;;0.60;72.01
35307;BME280;21420;52.196;21.416;2023-01-29T11:46:03;100664.86;;;0.59;72.11
35307;BME280;21420;52.196;21.416;2023-01-29T11:48:47;100658.12;;;0.57;72.03
35307;BME280;21420;52.196;21.416;2023-01-29T11:51:22;100656.44;;;0.58;72.20
35307;BME280;21420;52.196;21.416;2023-01-29T11:53:53;100650.03;;;0.60;72.23
35307;BME280;21420;52.196;21.416;2023-01-29T11:56:28;100642.12;;;0.62;72.24
35307;BME280;21420;52.196;21.416;2023-01-29T11:58:57;100641.21;;;0.66;72.15
35307;BME280;21420;52.196;21.416;2023-01-29T12:01:35;100634.55;;;0.67;72.30
35307;BME280;21420;52.196;21.416;2023-01-29T12:04:19;100636.20;;;0.63;72.15
35307;BME280;21420;52.196;21.416;2023-01-29T12:06:49;100636.06;;;0.57;72.16
35307;BME280;21420;52.196;21.416;2023-01-29T12:09:23;100632.55;;;0.58;72.30
35307;BME280;21420;52.196;21.416;2023-01-29T12:11:53;100634.68;;;0.60;72.35
35307;BME280;21420;52.196;21.416;2023-01-29T12:14:29;100628.65;;;0.63;72.38
35307;BME280;21420;52.196;21.416;2023-01-29T12:19:46;100621.52;;;0.55;72.18
35307;BME280;21420;52.196;21.416;2023-01-29T12:22:42;100615.62;;;0.53;72.42
35307;BME280;21420;52.196;21.416;2023-01-29T12:27:56;100604.73;;;0.54;72.26
35307;BME280;21420;52.196;21.416;2023-01-29T12:30:42;100606.96;;;0.49;72.24
35307;BME280;21420;52.196;21.416;2023-01-29T12:33:18;100608.83;;;0.43;72.36
35307;BME280;21420;52.196;21.416;2023-01-29T12:36:04;100604.03;;;0.42;72.44
35307;BME280;21420;52.196;21.416;2023-01-29T12:38:36;100600.64;;;0.44;72.45
35307;BME280;21420;52.196;21.416;2023-01-29T12:41:05;100595.15;;;0.44;72.53
35307;BME280;21420;52.196;21.416;2023-01-29T12:43:49;100594.17;;;0.43;72.59
35307;BME280;21420;52.196;21.416;2023-01-29T12:46:32;100593.38;;;0.44;72.70
35307;BME280;21420;52.196;21.416;2023-01-29T12:49:05;100592.48;;;0.45;72.74
35307;BME280;21420;52.196;21.416;2023-01-29T12:51:41;100582.94;;;0.47;72.72
35307;BME280;21420;52.196;21.416;2023-01-29T12:54:26;100577.16;;;0.46;72.66
35307;BME280;21420;52.196;21.416;2023-01-29T12:56:58;100571.77;;;0.44;72.60
35307;BME280;21420;52.196;21.416;2023-01-29T12:59:37;100571.75;;;0.40;72.38
35307;BME280;21420;52.196;21.416;2023-01-29T13:07:50;100564.02;;;0.32;72.55
35307;BME280;21420;52.196;21.416;2023-01-29T13:10:25;100564.48;;;0.30;72.48
35307;BME280;21420;52.196;21.416;2023-01-29T13:13:03;100571.70;;;0.28;72.64
35307;BME280;21420;52.196;21.416;2023-01-29T13:15:34;100572.24;;;0.30;72.67
35307;BME280;21420;52.196;21.416;2023-01-29T13:20:55;100566.77;;;0.31;72.82
35307;BME280;21420;52.196;21.416;2023-01-29T13:23:32;100568.42;;;0.31;72.76
35307;BME280;21420;52.196;21.416;2023-01-29T13:26:00;100575.15;;;0.30;72.69
35307;BME280;21420;52.196;21.416;2023-01-29T13:28:27;100570.56;;;0.30;72.79
35307;BME280;21420;52.196;21.416;2023-01-29T13:33:37;100561.92;;;0.24;72.68
35307;BME280;21420;52.196;21.416;2023-01-29T13:36:14;100564.94;;;0.22;72.66
35307;BME280;21420;52.196;21.416;2023-01-29T13:38:43;100563.80;;;0.19;72.61
35307;BME280;21420;52.196;21.416;2023-01-29T13:41:11;100569.27;;;0.18;72.61
35307;BME280;21420;52.196;21.416;2023-01-29T13:43:40;100572.84;;;0.16;72.68
35307;BME280;21420;52.196;21.416;2023-01-29T13:46:12;100572.02;;;0.14;72.55
35307;BME280;21420;52.196;21.416;2023-01-29T13:48:42;100569.31;;;0.12;72.63
35307;BME280;21420;52.196;21.416;2023-01-29T13:51:13;100572.00;;;0.13;72.78
35307;BME280;21420;52.196;21.416;2023-01-29T13:53:56;100574.66;;;0.15;72.82
35307;BME280;21420;52.196;21.416;2023-01-29T13:59:04;100549.98;;;0.14;72.88
35307;BME280;21420;52.196;21.416;2023-01-29T14:04:24;100542.64;;;0.12;72.86
35307;BME280;21420;52.196;21.416;2023-01-29T14:06:57;100545.16;;;0.10;72.83
35307;BME280;21420;52.196;21.416;2023-01-29T14:17:16;100552.57;;;0.04;73.01
35307;BME280;21420;52.196;21.416;2023-01-29T14:19:52;100550.77;;;0.04;72.97
35307;BME280;21420;52.196;21.416;2023-01-29T14:22:25;100555.05;;;0.05;73.10
35307;BME280;21420;52.196;21.416;2023-01-29T14:24:57;100572.44;;;0.04;72.95
35307;BME280;21420;52.196;21.416;2023-01-29T14:27:26;100576.22;;;0.04;72.98
35307;BME280;21420;52.196;21.416;2023-01-29T14:29:59;100589.69;;;0.03;72.97
35307;BME280;21420;52.196;21.416;2023-01-29T14:32:28;100583.79;;;0.01;72.86
35307;BME280;21420;52.196;21.416;2023-01-29T14:34:59;100581.45;;;-0.03;72.94
35307;BME280;21420;52.196;21.416;2023-01-29T14:37:37;100584.73;;;-0.02;73.21
35307;BME280;21420;52.196;21.416;2023-01-29T14:40:22;100577.80;;;-0.02;73.15
35307;BME280;21420;52.196;21.416;2023-01-29T14:43:03;100564.96;;;-0.04;72.95
35307;BME280;21420;52.196;21.416;2023-01-29T14:45:33;100552.20;;;-0.05;72.96
35307;BME280;21420;52.196;21.416;2023-01-29T14:50:41;100533.80;;;-0.10;73.02
35307;BME280;21420;52.196;21.416;2023-01-29T14:53:19;100541.44;;;-0.13;73.02
35307;BME280;21420;52.196;21.416;2023-01-29T14:56:02;100535.29;;;-0.15;73.23
35307;BME280;21420;52.196;21.416;2023-01-29T14:58:45;100532.59;;;-0.16;73.18
35307;BME280;21420;52.196;21.416;2023-01-29T15:01:19;100536.66;;;-0.19;73.05
35307;BME280;21420;52.196;21.416;2023-01-29T15:03:51;100526.41;;;-0.23;73.10
35307;BME280;21420;52.196;21.416;2023-01-29T15:06:28;100524.88;;;-0.27;73.07
35307;BME280;21420;52.196;21.416;2023-01-29T15:09:12;100537.15;;;-0.27;73.15
35307;BME280;21420;52.196;21.416;2023-01-29T15:11:51;100536.25;;;-0.26;73.24